sensor_id;sensor_type;location;lat;lon;timestamp;pressure;altitude;pressure_sealevel;temperature;humidity
36190;BME280;22232;50.914;13.858;2023-12-20T00:02:26;97352.59;;;4.88;100.00
36190;BME280;22232;50.914;13.858;2023-12-20T00:04:54;97346.69;;;4.92;100.00
36190;BME280;22232;50.914;13.858;2023-12-20T00:07:22;97347.91;;;4.90;100.00
36190;BME280;22232;50.914;13.858;2023-12-20T00:09:50;97352.78;;;4.86;100.00
36190;BME280;22232;50.914;13.858;2023-12-20T00:12:18;97351.56;;;4.82;100.00
36190;BME280;22232;50.914;13.858;2023-12-20T00:14:45;97348.31;;;4.80;100.00
36190;BME280;22232;50.914;13.858;2023-12-20T00:17:13;97332.88;;;4.70;100.00
36190;BME280;22232;50.914;13.858;2023-12-20T00:19:41;97341.44;;;4.66;100.00
36190;BME280;22232;50.914;13.858;2023-12-20T00:22:09;97330.44;;;4.62;100.00
36190;BME280;22232;50.914;13.858;2023-12-20T00:24:37;97326.59;;;4.65;100.00
36190;BME280;22232;50.914;13.858;2023-12-20T00:27:05;97315.81;;;4.53;100.00
36190;BME280;22232;50.914;13.858;2023-12-20T00:29:33;97321.34;;;4.51;100.00
36190;BME280;22232;50.914;13.858;2023-12-20T00:32:01;97307.91;;;4.46;100.00
36190;BME280;22232;50.914;13.858;2023-12-20T00:34:29;97308.94;;;4.45;100.00
36190;BME280;22232;50.914;13.858;2023-12-20T00:36:57;97299.59;;;4.43;100.00
36190;BME280;22232;50.914;13.858;2023-12-20T00:39:25;97302.63;;;4.40;100.00
36190;BME280;22232;50.914;13.858;2023-12-20T00:41:52;97307.53;;;4.36;100.00
36190;BME280;22232;50.914;13.858;2023-12-20T00:44:20;97313.41;;;4.31;100.00
36190;BME280;22232;50.914;13.858;2023-12-20T00:46:48;97301.63;;;4.27;100.00
36190;BME280;22232;50.914;13.858;2023-12-20T00:49:17;97304.47;;;4.32;100.00
36190;BME280;22232;50.914;13.858;2023-12-20T00:51:45;97296.94;;;4.23;100.00
36190;BME280;22232;50.914;13.858;2023-12-20T00:54:14;97298.78;;;4.16;100.00
36190;BME280;22232;50.914;13.858;2023-12-20T00:56:42;97294.53;;;4.14;100.00
36190;BME280;22232;50.914;13.858;2023-12-20T00:59:10;97299.59;;;4.16;100.00
36190;BME280;22232;50.914;13.858;2023-12-20T01:01:38;97284.38;;;4.11;100.00
36190;BME280;22232;50.914;13.858;2023-12-20T01:04:06;97293.91;;;4.06;100.00
36190;BME280;22232;50.914;13.858;2023-12-20T01:06:34;97285.75;;;4.07;100.00
36190;BME280;22232;50.914;13.858;2023-12-20T01:09:02;97279.91;;;4.05;100.00
36190;BME280;22232;50.914;13.858;2023-12-20T01:11:30;97272.38;;;4.09;100.00
36190;BME280;22232;50.914;13.858;2023-12-20T01:13:58;97267.91;;;4.03;100.00
36190;BME280;22232;50.914;13.858;2023-12-20T01:16:26;97250.66;;;4.07;100.00
36190;BME280;22232;50.914;13.858;2023-12-20T01:18:54;97256.56;;;4.09;100.00
36190;BME280;22232;50.914;13.858;2023-12-20T01:21:22;97253.69;;;4.04;100.00
36190;BME280;22232;50.914;13.858;2023-12-20T01:23:50;97248.41;;;4.04;100.00
36190;BME280;22232;50.914;13.858;2023-12-20T01:26:17;97252.50;;;4.00;100.00
36190;BME280;22232;50.914;13.858;2023-12-20T01:28:45;97261.44;;;3.99;100.00
36190;BME280;22232;50.914;13.858;2023-12-20T01:31:13;97257.16;;;3.91;100.00
36190;BME280;22232;50.914;13.858;2023-12-20T01:33:41;97256.34;;;3.97;100.00
36190;BME280;22232;50.914;13.858;2023-12-20T01:36:09;97249.63;;;3.95;100.00
36190;BME280;22232;50.914;13.858;2023-12-20T01:38:37;97246.41;;;3.93;100.00
36190;BME280;22232;50.914;13.858;2023-12-20T01:41:06;97245.97;;;3.89;100.00
36190;BME280;22232;50.914;13.858;2023-12-20T01:43:34;97240.28;;;3.85;100.00
36190;BME280;22232;50.914;13.858;2023-12-20T01:46:14;97238.47;;;3.79;100.00
36190;BME280;22232;50.914;13.858;2023-12-20T01:48:43;97238.28;;;3.81;100.00
36190;BME280;22232;50.914;13.858;2023-12-20T01:51:11;97248.59;;;3.76;100.00
36190;BME280;22232;50.914;13.858;2023-12-20T01:53:39;97247.59;;;3.83;100.00
36190;BME280;22232;50.914;13.858;2023-12-20T01:56:08;97239.09;;;3.81;100.00
36190;BME280;22232;50.914;13.858;2023-12-20T01:58:44;97233.00;;;3.81;100.00
36190;BME280;22232;50.914;13.858;2023-12-20T02:01:13;97231.16;;;3.81;100.00
36190;BME280;22232;50.914;13.858;2023-12-20T02:03:42;97233.81;;;3.81;100.00
36190;BME280;22232;50.914;13.858;2023-12-20T02:06:11;97237.44;;;3.80;100.00
36190;BME280;22232;50.914;13.858;2023-12-20T02:08:39;97239.66;;;3.70;100.00
36190;BME280;22232;50.914;13.858;2023-12-20T02:11:07;97228.09;;;3.71;100.00
36190;BME280;22232;50.914;13.858;2023-12-20T02:13:35;97228.72;;;3.66;100.00
36190;BME280;22232;50.914;13.858;2023-12-20T02:16:03;97228.31;;;3.70;100.00
36190;BME280;22232;50.914;13.858;2023-12-20T02:18:31;97235.81;;;3.66;100.00
36190;BME280;22232;50.914;13.858;2023-12-20T02:20:59;97227.91;;;3.59;100.00
36190;BME280;22232;50.914;13.858;2023-12-20T02:23:27;97227.69;;;3.61;100.00
36190;BME280;22232;50.914;13.858;2023-12-20T02:25:55;97225.03;;;3.61;100.00
36190;BME280;22232;50.914;13.858;2023-12-20T02:28:23;97226.88;;;3.60;100.00
36190;BME280;22232;50.914;13.858;2023-12-20T02:30:52;97226.06;;;3.66;100.00
36190;BME280;22232;50.914;13.858;2023-12-20T02:33:20;97228.50;;;3.68;100.00
36190;BME280;22232;50.914;13.858;2023-12-20T02:35:48;97220.38;;;3.56;100.00
36190;BME280;22232;50.914;13.858;2023-12-20T02:38:16;97214.72;;;3.59;100.00
36190;BME280;22232;50.914;13.858;2023-12-20T02:40:44;97216.50;;;3.52;100.00
36190;BME280;22232;50.914;13.858;2023-12-20T02:43:16;97204.16;;;3.59;100.00
36190;BME280;22232;50.914;13.858;2023-12-20T02:45:44;97205.38;;;3.57;100.00
36190;BME280;22232;50.914;13.858;2023-12-20T02:48:12;97215.91;;;3.57;100.00
36190;BME280;22232;50.914;13.858;2023-12-20T02:50:40;97205.16;;;3.58;100.00
36190;BME280;22232;50.914;13.858;2023-12-20T02:53:08;97200.69;;;3.59;100.00
36190;BME280;22232;50.914;13.858;2023-12-20T02:55:36;97193.19;;;3.56;100.00
36190;BME280;22232;50.914;13.858;2023-12-20T02:58:04;97190.94;;;3.53;100.00
36190;BME280;22232;50.914;13.858;2023-12-20T03:00:32;97198.44;;;3.49;100.00
36190;BME280;22232;50.914;13.858;2023-12-20T03:03:00;97192.38;;;3.55;100.00
36190;BME280;22232;50.914;13.858;2023-12-20T03:05:28;97194.63;;;3.52;100.00
36190;BME280;22232;50.914;13.858;2023-12-20T03:07:56;97195.22;;;3.54;100.00
36190;BME280;22232;50.914;13.858;2023-12-20T03:10:24;97200.09;;;3.50;100.00
36190;BME280;22232;50.914;13.858;2023-12-20T03:12:54;97197.06;;;3.53;100.00
36190;BME280;22232;50.914;13.858;2023-12-20T03:15:21;97191.56;;;3.48;100.00
36190;BME280;22232;50.914;13.858;2023-12-20T03:17:49;97190.75;;;3.48;100.00
36190;BME280;22232;50.914;13.858;2023-12-20T03:20:17;97193.41;;;3.48;100.00
36190;BME280;22232;50.914;13.858;2023-12-20T03:22:45;97194.59;;;3.45;100.00
36190;BME280;22232;50.914;13.858;2023-12-20T03:25:13;97194.38;;;3.40;100.00
36190;BME280;22232;50.914;13.858;2023-12-20T03:27:41;97190.53;;;3.42;100.00
36190;BME280;22232;50.914;13.858;2023-12-20T03:30:10;97187.91;;;3.36;100.00
36190;BME280;22232;50.914;13.858;2023-12-20T03:32:38;97187.91;;;3.36;100.00
36190;BME280;22232;50.914;13.858;2023-12-20T03:35:06;97187.09;;;3.35;100.00
36190;BME280;22232;50.914;13.858;2023-12-20T03:37:34;97193.56;;;3.33;100.00
36190;BME280;22232;50.914;13.858;2023-12-20T03:40:03;97184.06;;;3.38;100.00
36190;BME280;22232;50.914;13.858;2023-12-20T03:42:31;97189.31;;;3.38;100.00
36190;BME280;22232;50.914;13.858;2023-12-20T03:44:59;97194.38;;;3.40;100.00
36190;BME280;22232;50.914;13.858;2023-12-20T03:47:27;97197.63;;;3.35;100.00
36190;BME280;22232;50.914;13.858;2023-12-20T03:49:55;97201.06;;;3.36;100.00
36190;BME280;22232;50.914;13.858;2023-12-20T03:52:23;97196.44;;;3.38;100.00
36190;BME280;22232;50.914;13.858;2023-12-20T03:54:51;97201.25;;;3.34;100.00
36190;BME280;22232;50.914;13.858;2023-12-20T03:57:19;97200.25;;;3.29;100.00
36190;BME280;22232;50.914;13.858;2023-12-20T03:59:46;97201.25;;;3.34;100.00
36190;BME280;22232;50.914;13.858;2023-12-20T04:02:14;97195.00;;;3.35;100.00
36190;BME280;22232;50.914;13.858;2023-12-20T04:04:43;97199.47;;;3.41;100.00
36190;BME280;22232;50.914;13.858;2023-12-20T04:07:11;97200.69;;;3.45;100.00
36190;BME280;22232;50.914;13.858;2023-12-20T04:09:40;97209.00;;;3.42;100.00
36190;BME280;22232;50.914;13.858;2023-12-20T04:12:08;97215.28;;;3.48;100.00
36190;BME280;22232;50.914;13.858;2023-12-20T04:14:36;97205.16;;;3.45;100.00
36190;BME280;22232;50.914;13.858;2023-12-20T04:17:05;97195.41;;;3.45;100.00
36190;BME280;22232;50.914;13.858;2023-12-20T04:19:33;97199.25;;;3.43;100.00
36190;BME280;22232;50.914;13.858;2023-12-20T04:22:01;97200.06;;;3.43;100.00
36190;BME280;22232;50.914;13.858;2023-12-20T04:24:29;97205.16;;;3.45;100.00
36190;BME280;22232;50.914;13.858;2023-12-20T04:26:56;97196.44;;;3.44;100.00
36190;BME280;22232;50.914;13.858;2023-12-20T04:29:24;97199.25;;;3.50;100.00
36190;BME280;22232;50.914;13.858;2023-12-20T04:31:52;97201.31;;;3.48;100.00
36190;BME280;22232;50.914;13.858;2023-12-20T04:34:21;97196.03;;;3.48;100.00
36190;BME280;22232;50.914;13.858;2023-12-20T04:36:49;97205.34;;;3.43;100.00
36190;BME280;22232;50.914;13.858;2023-12-20T04:39:17;97200.91;;;3.51;100.00
36190;BME280;22232;50.914;13.858;2023-12-20T04:41:45;97195.81;;;3.49;100.00
36190;BME280;22232;50.914;13.858;2023-12-20T04:44:15;97202.91;;;3.49;100.00
36190;BME280;22232;50.914;13.858;2023-12-20T04:46:43;97200.28;;;3.49;100.00
36190;BME280;22232;50.914;13.858;2023-12-20T04:49:11;97205.97;;;3.45;100.00
36190;BME280;22232;50.914;13.858;2023-12-20T04:51:39;97191.34;;;3.50;100.00
36190;BME280;22232;50.914;13.858;2023-12-20T04:54:07;97188.13;;;3.48;100.00
36190;BME280;22232;50.914;13.858;2023-12-20T04:56:35;97202.53;;;3.52;100.00
36190;BME280;22232;50.914;13.858;2023-12-20T04:59:03;97195.63;;;3.51;100.00
36190;BME280;22232;50.914;13.858;2023-12-20T05:01:31;97196.22;;;3.53;100.00
36190;BME280;22232;50.914;13.858;2023-12-20T05:03:59;97196.84;;;3.55;100.00
36190;BME280;22232;50.914;13.858;2023-12-20T05:06:27;97189.97;;;3.54;100.00
36190;BME280;22232;50.914;13.858;2023-12-20T05:08:55;97190.94;;;3.53;100.00
36190;BME280;22232;50.914;13.858;2023-12-20T05:11:23;97189.56;;;3.50;100.00
36190;BME280;22232;50.914;13.858;2023-12-20T05:13:51;97191.34;;;3.50;100.00
36190;BME280;22232;50.914;13.858;2023-12-20T05:16:19;97188.53;;;3.44;100.00
36190;BME280;22232;50.914;13.858;2023-12-20T05:18:48;97194.19;;;3.48;100.00
36190;BME280;22232;50.914;13.858;2023-12-20T05:21:16;97197.25;;;3.52;100.00
36190;BME280;22232;50.914;13.858;2023-12-20T05:23:44;97204.56;;;3.56;100.00
36190;BME280;22232;50.914;13.858;2023-12-20T05:26:13;97205.56;;;3.49;100.00
36190;BME280;22232;50.914;13.858;2023-12-20T05:28:41;97201.09;;;3.49;100.00
36190;BME280;22232;50.914;13.858;2023-12-20T05:31:09;97212.44;;;3.50;100.00
36190;BME280;22232;50.914;13.858;2023-12-20T05:33:37;97219.16;;;3.52;100.00
36190;BME280;22232;50.914;13.858;2023-12-20T05:36:05;97214.28;;;3.56;100.00
36190;BME280;22232;50.914;13.858;2023-12-20T05:38:33;97212.88;;;3.53;100.00
36190;BME280;22232;50.914;13.858;2023-12-20T05:41:01;97217.94;;;3.48;100.00
36190;BME280;22232;50.914;13.858;2023-12-20T05:43:29;97214.91;;;3.51;100.00
36190;BME280;22232;50.914;13.858;2023-12-20T05:45:56;97227.28;;;3.51;100.00
36190;BME280;22232;50.914;13.858;2023-12-20T05:48:25;97226.06;;;3.53;100.00
36190;BME280;22232;50.914;13.858;2023-12-20T05:50:53;97225.22;;;3.53;100.00
36190;BME280;22232;50.914;13.858;2023-12-20T05:53:21;97225.63;;;3.50;100.00
36190;BME280;22232;50.914;13.858;2023-12-20T05:55:49;97227.69;;;3.54;100.00
36190;BME280;22232;50.914;13.858;2023-12-20T05:58:17;97225.22;;;3.53;100.00
36190;BME280;22232;50.914;13.858;2023-12-20T06:00:45;97225.22;;;3.53;100.00
36190;BME280;22232;50.914;13.858;2023-12-20T06:03:13;97226.66;;;3.55;100.00
36190;BME280;22232;50.914;13.858;2023-12-20T06:05:41;97222.81;;;3.51;100.00
36190;BME280;22232;50.914;13.858;2023-12-20T06:08:09;97239.03;;;3.48;100.00
36190;BME280;22232;50.914;13.858;2023-12-20T06:10:36;97252.84;;;3.57;100.00
36190;BME280;22232;50.914;13.858;2023-12-20T06:13:04;97247.97;;;3.60;100.00
36190;BME280;22232;50.914;13.858;2023-12-20T06:15:34;97247.56;;;3.57;100.00
36190;BME280;22232;50.914;13.858;2023-12-20T06:18:03;97232.53;;;3.51;100.00
36190;BME280;22232;50.914;13.858;2023-12-20T06:20:31;97236.59;;;3.53;100.00
36190;BME280;22232;50.914;13.858;2023-12-20T06:22:59;97242.69;;;3.60;100.00
36190;BME280;22232;50.914;13.858;2023-12-20T06:25:27;97257.31;;;3.63;100.00
36190;BME280;22232;50.914;13.858;2023-12-20T06:27:55;97264.19;;;3.57;100.00
36190;BME280;22232;50.914;13.858;2023-12-20T06:30:23;97259.09;;;3.56;100.00
36190;BME280;22232;50.914;13.858;2023-12-20T06:32:53;97252.03;;;3.56;100.00
36190;BME280;22232;50.914;13.858;2023-12-20T06:35:21;97252.84;;;3.57;100.00
36190;BME280;22232;50.914;13.858;2023-12-20T06:37:49;97258.91;;;3.57;100.00
36190;BME280;22232;50.914;13.858;2023-12-20T06:40:17;97268.84;;;3.55;100.00
36190;BME280;22232;50.914;13.858;2023-12-20T06:42:46;97269.66;;;3.56;100.00
36190;BME280;22232;50.914;13.858;2023-12-20T06:45:31;97278.59;;;3.55;100.00
36190;BME280;22232;50.914;13.858;2023-12-20T06:47:59;97281.22;;;3.55;100.00
36190;BME280;22232;50.914;13.858;2023-12-20T06:50:27;97288.34;;;3.61;100.00
36190;BME280;22232;50.914;13.858;2023-12-20T06:52:55;97289.13;;;3.61;100.00
36190;BME280;22232;50.914;13.858;2023-12-20T06:55:23;97279.63;;;3.67;100.00
36190;BME280;22232;50.914;13.858;2023-12-20T06:57:51;97287.53;;;3.67;100.00
36190;BME280;22232;50.914;13.858;2023-12-20T07:00:18;97296.25;;;3.67;100.00
36190;BME280;22232;50.914;13.858;2023-12-20T07:02:48;97292.00;;;3.66;100.00
36190;BME280;22232;50.914;13.858;2023-12-20T07:05:17;97293.84;;;3.66;100.00
36190;BME280;22232;50.914;13.858;2023-12-20T07:07:47;97296.66;;;3.71;100.00
36190;BME280;22232;50.914;13.858;2023-12-20T07:10:16;97300.16;;;3.78;100.00
36190;BME280;22232;50.914;13.858;2023-12-20T07:12:45;97301.19;;;3.84;100.00
36190;BME280;22232;50.914;13.858;2023-12-20T07:15:13;97308.25;;;3.83;100.00
36190;BME280;22232;50.914;13.858;2023-12-20T07:17:41;97310.72;;;3.85;100.00
36190;BME280;22232;50.914;13.858;2023-12-20T07:20:10;97318.84;;;3.90;100.00
36190;BME280;22232;50.914;13.858;2023-12-20T07:22:38;97310.50;;;3.86;100.00
36190;BME280;22232;50.914;13.858;2023-12-20T07:25:07;97310.72;;;3.91;100.00
36190;BME280;22232;50.914;13.858;2023-12-20T07:27:35;97314.56;;;3.89;100.00
36190;BME280;22232;50.914;13.858;2023-12-20T07:30:03;97295.69;;;3.85;100.00
36190;BME280;22232;50.914;13.858;2023-12-20T07:32:31;97313.56;;;3.90;100.00
36190;BME280;22232;50.914;13.858;2023-12-20T07:34:59;97312.38;;;3.93;100.00
36190;BME280;22232;50.914;13.858;2023-12-20T07:37:28;97307.09;;;3.93;100.00
36190;BME280;22232;50.914;13.858;2023-12-20T07:39:55;97315.59;;;3.95;100.00
36190;BME280;22232;50.914;13.858;2023-12-20T07:42:23;97319.25;;;4.00;100.00
36190;BME280;22232;50.914;13.858;2023-12-20T07:44:51;97320.47;;;3.98;100.00
36190;BME280;22232;50.914;13.858;2023-12-20T07:47:19;97308.28;;;3.90;100.00
36190;BME280;22232;50.914;13.858;2023-12-20T07:49:49;97315.41;;;3.96;100.00
36190;BME280;22232;50.914;13.858;2023-12-20T07:52:19;97323.09;;;3.98;100.00
36190;BME280;22232;50.914;13.858;2023-12-20T07:54:47;97314.97;;;3.86;100.00
36190;BME280;22232;50.914;13.858;2023-12-20T07:57:15;97314.59;;;3.96;100.00
36190;BME280;22232;50.914;13.858;2023-12-20T07:59:43;97309.91;;;3.91;100.00
36190;BME280;22232;50.914;13.858;2023-12-20T08:02:12;97312.94;;;3.88;100.00
36190;BME280;22232;50.914;13.858;2023-12-20T08:04:40;97314.53;;;3.76;100.00
36190;BME280;22232;50.914;13.858;2023-12-20T08:07:08;97314.94;;;3.73;100.00
36190;BME280;22232;50.914;13.858;2023-12-20T08:09:36;97313.53;;;3.77;100.00
36190;BME280;22232;50.914;13.858;2023-12-20T08:12:04;97310.91;;;3.83;100.00
36190;BME280;22232;50.914;13.858;2023-12-20T08:14:32;97312.38;;;3.93;100.00
36190;BME280;22232;50.914;13.858;2023-12-20T08:17:00;97315.81;;;4.13;100.00
36190;BME280;22232;50.914;13.858;2023-12-20T08:19:28;97309.34;;;4.16;100.00
36190;BME280;22232;50.914;13.858;2023-12-20T08:21:56;97309.34;;;4.09;100.00
36190;BME280;22232;50.914;13.858;2023-12-20T08:24:24;97310.75;;;4.05;100.00
36190;BME280;22232;50.914;13.858;2023-12-20T08:26:52;97309.72;;;4.19;100.00
36190;BME280;22232;50.914;13.858;2023-12-20T08:29:20;97322.53;;;4.22;100.00
36190;BME280;22232;50.914;13.858;2023-12-20T08:31:52;97325.38;;;4.21;100.00
36190;BME280;22232;50.914;13.858;2023-12-20T08:34:21;97314.03;;;4.20;100.00
36190;BME280;22232;50.914;13.858;2023-12-20T08:36:53;97307.31;;;4.24;100.00
36190;BME280;22232;50.914;13.858;2023-12-20T08:39:21;97307.72;;;4.28;100.00
36190;BME280;22232;50.914;13.858;2023-12-20T08:41:49;97307.94;;;4.26;100.00
36190;BME280;22232;50.914;13.858;2023-12-20T08:44:17;97310.97;;;4.43;100.00
36190;BME280;22232;50.914;13.858;2023-12-20T08:46:44;97302.66;;;4.59;100.00
36190;BME280;22232;50.914;13.858;2023-12-20T08:49:12;97311.16;;;4.81;100.00
36190;BME280;22232;50.914;13.858;2023-12-20T08:51:40;97308.25;;;4.90;100.00
36190;BME280;22232;50.914;13.858;2023-12-20T08:54:09;97310.88;;;5.03;100.00
36190;BME280;22232;50.914;13.858;2023-12-20T08:56:37;97300.44;;;5.28;100.00
36190;BME280;22232;50.914;13.858;2023-12-20T08:59:05;97294.97;;;5.16;100.00
36190;BME280;22232;50.914;13.858;2023-12-20T09:01:33;97300.88;;;5.18;100.00
36190;BME280;22232;50.914;13.858;2023-12-20T09:04:01;97307.75;;;5.26;100.00
36190;BME280;22232;50.914;13.858;2023-12-20T09:09:37;97310.44;;;5.19;100.00
36190;BME280;22232;50.914;13.858;2023-12-20T09:12:05;97309.88;;;4.97;100.00
36190;BME280;22232;50.914;13.858;2023-12-20T09:14:33;97312.38;;;4.72;100.00
36190;BME280;22232;50.914;13.858;2023-12-20T09:17:01;97307.69;;;4.61;100.00
36190;BME280;22232;50.914;13.858;2023-12-20T09:19:30;97317.88;;;4.57;100.00
36190;BME280;22232;50.914;13.858;2023-12-20T09:21:58;97320.72;;;4.36;100.00
36190;BME280;22232;50.914;13.858;2023-12-20T09:24:27;97308.53;;;4.48;100.00
36190;BME280;22232;50.914;13.858;2023-12-20T09:26:55;97319.28;;;4.60;100.00
36190;BME280;22232;50.914;13.858;2023-12-20T09:29:23;97322.34;;;4.64;100.00
36190;BME280;22232;50.914;13.858;2023-12-20T09:31:51;97314.00;;;4.60;100.00
36190;BME280;22232;50.914;13.858;2023-12-20T09:34:19;97316.66;;;4.60;100.00
36190;BME280;22232;50.914;13.858;2023-12-20T09:36:47;97308.72;;;4.53;100.00
36190;BME280;22232;50.914;13.858;2023-12-20T09:39:16;97304.88;;;4.69;100.00
36190;BME280;22232;50.914;13.858;2023-12-20T09:42:02;97300.56;;;4.88;100.00
36190;BME280;22232;50.914;13.858;2023-12-20T09:44:31;97288.50;;;5.12;100.00
36190;BME280;22232;50.914;13.858;2023-12-20T09:47:03;97279.50;;;5.20;100.00
36190;BME280;22232;50.914;13.858;2023-12-20T09:49:32;97277.44;;;5.28;100.00
36190;BME280;22232;50.914;13.858;2023-12-20T09:52:00;97279.50;;;5.20;100.00
36190;BME280;22232;50.914;13.858;2023-12-20T09:54:29;97278.28;;;5.22;100.00
36190;BME280;22232;50.914;13.858;2023-12-20T09:56:58;97275.41;;;5.31;100.00
36190;BME280;22232;50.914;13.858;2023-12-20T09:59:26;97280.09;;;5.28;100.00
36190;BME280;22232;50.914;13.858;2023-12-20T10:01:55;97284.72;;;5.40;100.00
36190;BME280;22232;50.914;13.858;2023-12-20T10:04:25;97286.53;;;5.46;100.00
36190;BME280;22232;50.914;13.858;2023-12-20T10:06:57;97273.75;;;5.36;100.00
36190;BME280;22232;50.914;13.858;2023-12-20T10:09:33;97279.44;;;5.40;100.00
36190;BME280;22232;50.914;13.858;2023-12-20T10:12:02;97276.78;;;5.40;100.00
36190;BME280;22232;50.914;13.858;2023-12-20T10:14:31;97267.22;;;5.45;100.00
36190;BME280;22232;50.914;13.858;2023-12-20T10:17:03;97263.50;;;5.53;100.00
36190;BME280;22232;50.914;13.858;2023-12-20T10:19:32;97249.66;;;5.58;100.00
36190;BME280;22232;50.914;13.858;2023-12-20T10:22:00;97245.63;;;5.48;100.00
36190;BME280;22232;50.914;13.858;2023-12-20T10:24:29;97245.81;;;5.47;100.00
36190;BME280;22232;50.914;13.858;2023-12-20T10:27:04;97249.16;;;5.29;100.00
36190;BME280;22232;50.914;13.858;2023-12-20T10:29:36;97226.53;;;5.40;100.00
36190;BME280;22232;50.914;13.858;2023-12-20T10:32:24;97220.03;;;5.42;100.00
36190;BME280;22232;50.914;13.858;2023-12-20T10:34:53;97222.63;;;5.49;100.00
36190;BME280;22232;50.914;13.858;2023-12-20T10:37:22;97227.34;;;5.40;100.00
36190;BME280;22232;50.914;13.858;2023-12-20T10:39:51;97218.66;;;5.33;100.00
36190;BME280;22232;50.914;13.858;2023-12-20T10:42:27;97225.94;;;5.38;100.00
36190;BME280;22232;50.914;13.858;2023-12-20T10:44:56;97229.63;;;5.37;100.00
36190;BME280;22232;50.914;13.858;2023-12-20T10:47:25;97234.53;;;5.33;100.00
36190;BME280;22232;50.914;13.858;2023-12-20T10:49:54;97228.38;;;5.39;100.00
36190;BME280;22232;50.914;13.858;2023-12-20T10:52:23;97226.50;;;5.46;100.00
36190;BME280;22232;50.914;13.858;2023-12-20T10:54:53;97225.69;;;5.46;100.00
36190;BME280;22232;50.914;13.858;2023-12-20T10:57:21;97219.22;;;5.42;100.00
36190;BME280;22232;50.914;13.858;2023-12-20T10:59:53;97220.44;;;5.39;100.00
36190;BME280;22232;50.914;13.858;2023-12-20T11:02:22;97222.81;;;5.47;100.00
36190;BME280;22232;50.914;13.858;2023-12-20T11:04:55;97217.09;;;5.57;100.00
36190;BME280;22232;50.914;13.858;2023-12-20T11:07:38;97213.03;;;5.55;100.00
36190;BME280;22232;50.914;13.858;2023-12-20T11:13:16;97213.66;;;5.50;100.00
36190;BME280;22232;50.914;13.858;2023-12-20T11:15:42;97216.00;;;5.65;100.00
36190;BME280;22232;50.914;13.858;2023-12-20T11:18:11;97219.66;;;5.70;100.00
36190;BME280;22232;50.914;13.858;2023-12-20T11:20:40;97216.31;;;5.82;100.00
36190;BME280;22232;50.914;13.858;2023-12-20T11:23:09;97221.00;;;5.80;100.00
36190;BME280;22232;50.914;13.858;2023-12-20T11:25:53;97202.84;;;5.83;100.00
36190;BME280;22232;50.914;13.858;2023-12-20T11:28:23;97205.34;;;5.78;100.00
36190;BME280;22232;50.914;13.858;2023-12-20T11:30:56;97203.72;;;5.77;100.00
36190;BME280;22232;50.914;13.858;2023-12-20T11:33:35;97209.38;;;5.81;100.00
36190;BME280;22232;50.914;13.858;2023-12-20T11:36:06;97200.31;;;5.70;100.00
36190;BME280;22232;50.914;13.858;2023-12-20T11:38:54;97210.53;;;5.66;100.00
36190;BME280;22232;50.914;13.858;2023-12-20T11:41:23;97194.59;;;5.73;100.00
36190;BME280;22232;50.914;13.858;2023-12-20T11:43:55;97197.56;;;5.83;100.00
36190;BME280;22232;50.914;13.858;2023-12-20T11:46:24;97204.75;;;5.76;100.00
36190;BME280;22232;50.914;13.858;2023-12-20T11:48:52;97196.03;;;5.69;100.00
36190;BME280;22232;50.914;13.858;2023-12-20T11:51:20;97187.94;;;5.64;100.00
36190;BME280;22232;50.914;13.858;2023-12-20T11:53:51;97182.53;;;5.52;100.00
36190;BME280;22232;50.914;13.858;2023-12-20T11:56:20;97179.97;;;5.39;100.00
36190;BME280;22232;50.914;13.858;2023-12-20T11:58:48;97184.28;;;5.33;100.00
36190;BME280;22232;50.914;13.858;2023-12-20T12:01:19;97184.41;;;5.45;100.00
36190;BME280;22232;50.914;13.858;2023-12-20T12:04:02;97176.25;;;5.46;100.00
36190;BME280;22232;50.914;13.858;2023-12-20T12:06:30;97174.69;;;5.39;100.00
36190;BME280;22232;50.914;13.858;2023-12-20T12:08:58;97173.59;;;5.46;100.00
36190;BME280;22232;50.914;13.858;2023-12-20T12:11:27;97171.41;;;5.43;100.00
36190;BME280;22232;50.914;13.858;2023-12-20T12:13:54;97173.91;;;5.32;100.00
36190;BME280;22232;50.914;13.858;2023-12-20T12:16:22;97164.97;;;5.26;100.00
36190;BME280;22232;50.914;13.858;2023-12-20T12:18:57;97158.66;;;5.34;100.00
36190;BME280;22232;50.914;13.858;2023-12-20T12:21:26;97158.47;;;5.28;100.00
36190;BME280;22232;50.914;13.858;2023-12-20T12:24:07;97151.34;;;5.29;100.00
36190;BME280;22232;50.914;13.858;2023-12-20T12:26:35;97145.47;;;5.27;100.00
36190;BME280;22232;50.914;13.858;2023-12-20T12:29:03;97144.00;;;5.31;100.00
36190;BME280;22232;50.914;13.858;2023-12-20T12:31:31;97129.31;;;5.35;100.00
36190;BME280;22232;50.914;13.858;2023-12-20T12:33:59;97132.56;;;5.37;100.00
36190;BME280;22232;50.914;13.858;2023-12-20T12:36:28;97126.53;;;5.30;100.00
36190;BME280;22232;50.914;13.858;2023-12-20T12:38:57;97128.19;;;5.24;100.00
36190;BME280;22232;50.914;13.858;2023-12-20T12:41:25;97108.09;;;5.17;100.00
36190;BME280;22232;50.914;13.858;2023-12-20T12:43:53;97102.44;;;5.13;100.00
36190;BME280;22232;50.914;13.858;2023-12-20T12:46:25;97104.47;;;5.11;100.00
36190;BME280;22232;50.914;13.858;2023-12-20T12:48:53;97100.88;;;4.99;100.00
36190;BME280;22232;50.914;13.858;2023-12-20T12:51:21;97093.31;;;5.09;100.00
36190;BME280;22232;50.914;13.858;2023-12-20T12:53:49;97097.38;;;5.12;100.00
36190;BME280;22232;50.914;13.858;2023-12-20T12:56:17;97078.31;;;5.03;100.00
36190;BME280;22232;50.914;13.858;2023-12-20T12:58:45;97092.09;;;5.12;100.00
36190;BME280;22232;50.914;13.858;2023-12-20T13:01:13;97096.72;;;5.16;100.00
36190;BME280;22232;50.914;13.858;2023-12-20T13:03:41;97084.78;;;5.07;100.00
36190;BME280;22232;50.914;13.858;2023-12-20T13:06:09;97092.53;;;5.02;100.00